Time;durP1;ratioP1;P1;durP2;ratioP2;P2;SDS_P1;SDS_P2;PMS_P1;PMS_P2;Temp;Humidity;BMP_temperature;BMP_pressure;BME280_temperature;BME280_humidity;BME280_pressure;Samples;Min_cycle;Max_cycle;Signal;HPM_P1;HPM_P2
2023/01/24 17:40:58;;;;;;;2.17;1.07;;;;;;;11.00;60.62;101970.69;6150072;23;20539;-90
2023/01/24 17:43:26;;;;;;;4.33;1.03;;;;;;;10.97;61.50;101989.31;6091458;23;20436;-90
2023/01/24 17:46:18;;;;;;;2.73;1.10;;;;;;;10.85;62.25;101994.22;6123558;23;20495;-90
2023/01/24 17:48:46;;;;;;;2.47;1.30;;;;;;;10.74;63.07;102005.47;6090256;23;20408;-89
2023/01/24 17:51:17;;;;;;;4.20;1.97;;;;;;;10.59;64.01;102007.09;6114790;23;20407;-89
2023/01/24 17:53:45;;;;;;;2.87;1.30;;;;;;;10.48;64.80;102010.97;6116308;23;20492;-90
2023/01/24 17:56:13;;;;;;;3.37;1.27;;;;;;;10.43;65.40;102017.94;6090629;23;20470;-90
2023/01/24 17:58:42;;;;;;;2.00;1.63;;;;;;;10.20;66.63;102002.06;6091619;23;20407;-90
2023/01/24 18:01:11;;;;;;;2.50;1.70;;;;;;;10.16;67.46;102024.41;6114261;23;20436;-90
2023/01/24 18:03:51;;;;;;;7.93;2.53;;;;;;;9.97;68.45;102020.84;6091764;23;20408;-90
2023/01/24 18:06:19;;;;;;;4.03;2.33;;;;;;;9.88;70.34;102029.13;6114911;23;20411;-90
2023/01/24 18:08:58;;;;;;;4.10;2.20;;;;;;;9.76;71.68;102030.38;6090213;23;20479;-89
2023/01/24 18:11:25;;;;;;;5.97;2.90;;;;;;;9.57;72.64;102015.91;6138264;23;20408;-89
2023/01/24 18:13:54;;;;;;;7.90;3.70;;;;;;;9.48;73.57;102027.72;6091055;23;20401;-90
2023/01/24 18:16:24;;;;;;;10.53;2.80;;;;;;;9.32;74.44;102017.50;6115861;23;20400;-89
2023/01/24 18:18:54;;;;;;;6.10;2.83;;;;;;;9.29;74.93;102036.06;6090294;23;20436;-90
2023/01/24 18:21:23;;;;;;;3.73;2.20;;;;;;;9.22;75.78;102033.09;6114734;23;20440;-90
2023/01/24 18:23:55;;;;;;;2.80;1.70;;;;;;;9.15;75.66;102033.84;6090517;23;20404;-90
2023/01/24 18:26:24;;;;;;;6.80;3.43;;;;;;;9.08;75.36;102038.19;6115712;23;20401;-90
2023/01/24 18:28:52;;;;;;;3.20;2.20;;;;;;;8.99;74.93;102021.75;6090396;23;20918;-88
2023/01/24 18:31:23;;;;;;;15.80;7.30;;;;;;;9.03;74.50;102029.63;6091233;23;20816;-91
2023/01/24 18:34:00;;;;;;;16.53;10.07;;;;;;;9.09;73.52;102038.03;6108739;23;20401;-91
2023/01/24 18:36:28;;;;;;;23.30;12.90;;;;;;;9.05;70.53;102033.91;6132034;23;20781;-88
2023/01/24 18:38:56;;;;;;;42.77;20.77;;;;;;;9.08;69.85;102041.78;6083991;23;20456;-88
2023/01/24 18:41:26;;;;;;;17.00;9.13;;;;;;;9.26;68.91;102063.63;6106533;23;20445;-89
2023/01/24 18:43:58;;;;;;;58.47;22.90;;;;;;;9.28;68.41;102064.34;6158525;23;20919;-90
2023/01/24 18:46:31;;;;;;;25.60;11.10;;;;;;;9.30;68.13;102065.91;6108419;23;20428;-90
2023/01/24 18:48:58;;;;;;;156.27;53.60;;;;;;;9.27;68.11;102063.47;6131710;23;20416;-91
2023/01/24 18:51:27;;;;;;;246.80;90.70;;;;;;;9.28;68.13;102070.66;6084066;23;20447;-90
2023/01/24 18:53:55;;;;;;;43.13;16.63;;;;;;;9.26;68.06;102067.22;6107302;23;20459;-90
2023/01/24 18:56:22;;;;;;;22.00;10.10;;;;;;;9.29;67.52;102077.81;6107533;23;20721;-89
2023/01/24 18:58:50;;;;;;;43.20;21.43;;;;;;;9.25;67.65;102086.47;6084079;23;20420;-91
2023/01/24 19:01:21;;;;;;;34.10;17.53;;;;;;;9.14;67.77;102073.91;6083820;23;20524;-91
2023/01/24 19:03:50;;;;;;;29.43;16.07;;;;;;;9.15;68.15;102080.22;6107585;23;20969;-90
2023/01/24 19:06:25;;;;;;;10.07;5.93;;;;;;;9.12;69.38;102100.47;6084296;23;20400;-90
2023/01/24 19:08:53;;;;;;;5.50;3.17;;;;;;;8.99;70.39;102092.66;6107560;23;20499;-90
2023/01/24 19:11:53;;;;;;;4.53;2.63;;;;;;;8.84;71.55;102079.66;6111831;23;20765;-90
2023/01/24 19:14:22;;;;;;;4.40;2.30;;;;;;;8.84;72.50;102104.19;6107142;23;20415;-91
2023/01/24 19:16:50;;;;;;;6.53;5.00;;;;;;;8.77;73.00;102103.06;6084690;23;20420;-90
2023/01/24 19:19:21;;;;;;;3.87;2.10;;;;;;;8.71;73.90;102109.09;6084056;23;20409;-91
2023/01/24 19:21:50;;;;;;;2.00;1.60;;;;;;;8.65;74.30;102107.84;6131161;23;20440;-90
2023/01/24 19:24:17;;;;;;;1.50;1.30;;;;;;;8.58;74.01;102109.44;6083387;23;20424;-91
2023/01/24 19:26:45;;;;;;;1.53;1.00;;;;;;;8.52;73.93;102113.59;6083468;23;20405;-91
2023/01/24 19:29:13;;;;;;;1.00;0.60;;;;;;;8.44;74.80;102112.63;6083693;23;20413;-91
2023/01/24 19:31:41;;;;;;;1.80;1.20;;;;;;;8.38;75.51;102114.06;6107438;23;20401;-90
2023/01/24 19:34:09;;;;;;;2.77;1.10;;;;;;;8.28;76.20;102108.56;6083830;23;20730;-90
2023/01/24 19:36:38;;;;;;;1.80;1.40;;;;;;;8.21;76.81;102110.19;6082719;23;20416;-91
2023/01/24 19:39:07;;;;;;;1.30;0.83;;;;;;;8.12;77.28;102113.75;6107458;23;20401;-91
2023/01/24 19:41:36;;;;;;;1.73;1.00;;;;;;;8.09;77.50;102124.94;6084148;23;20437;-91
2023/01/24 19:44:04;;;;;;;3.37;1.00;;;;;;;7.99;78.45;102110.47;6157433;23;20400;-91
2023/01/24 19:46:49;;;;;;;4.13;1.40;;;;;;;7.79;79.38;102101.44;6113721;23;20421;-91
2023/01/24 19:49:19;;;;;;;1.97;1.00;;;;;;;7.77;79.97;102110.75;6084470;23;20452;-91
2023/01/24 19:51:47;;;;;;;4.03;1.67;;;;;;;7.70;79.84;102106.91;6107136;23;20895;-91
2023/01/24 19:54:15;;;;;;;6.60;2.43;;;;;;;7.63;80.70;102118.34;6083924;23;20409;-91
2023/01/24 19:56:42;;;;;;;4.03;1.87;;;;;;;7.61;81.05;102114.91;6106813;23;20404;-91
2023/01/24 19:59:10;;;;;;;2.23;1.60;;;;;;;7.60;80.94;102126.78;6082905;23;20420;-90
2023/01/24 20:01:40;;;;;;;2.20;1.40;;;;;;;7.56;81.06;102122.59;6083714;23;20436;-91
2023/01/24 20:04:10;;;;;;;2.80;1.33;;;;;;;7.57;81.02;102121.59;6083567;23;20404;-91
2023/01/24 20:06:52;;;;;;;2.73;1.90;;;;;;;7.52;81.73;102123.88;6091273;23;20432;-91
2023/01/24 20:09:28;;;;;;;2.97;1.90;;;;;;;7.51;81.80;102121.31;6088108;23;20913;-90
2023/01/24 20:11:57;;;;;;;2.93;2.20;;;;;;;7.46;81.68;102124.47;6084312;23;20397;-90
2023/01/24 20:14:27;;;;;;;2.80;2.20;;;;;;;7.42;81.78;102120.28;6083616;23;20735;-91
2023/01/24 20:16:55;;;;;;;3.50;2.07;;;;;;;7.41;82.18;102124.00;6106850;23;20754;-92
2023/01/24 20:19:24;;;;;;;3.80;2.17;;;;;;;7.37;82.70;102133.44;6083686;23;20499;-91
2023/01/24 20:21:57;;;;;;;5.13;1.90;;;;;;;7.37;83.16;102136.16;6086174;23;20954;-90
2023/01/24 20:24:27;;;;;;;1.77;1.20;;;;;;;7.33;83.29;102121.13;6107051;23;20466;-91
2023/01/24 20:26:55;;;;;;;2.30;1.53;;;;;;;7.17;83.50;102104.47;6083397;23;20895;-91
2023/01/24 20:29:26;;;;;;;4.10;1.67;;;;;;;7.22;83.91;102127.53;6085448;23;20413;-91
2023/01/24 20:31:56;;;;;;;3.00;1.73;;;;;;;7.19;84.14;102132.38;6107981;23;20439;-91
2023/01/24 20:34:34;;;;;;;2.10;1.73;;;;;;;7.08;83.99;102116.19;6088303;23;20385;-91
2023/01/24 20:37:05;;;;;;;1.77;1.23;;;;;;;7.01;84.31;102115.00;6132276;23;20413;-91
2023/01/24 20:39:34;;;;;;;4.57;1.40;;;;;;;7.04;84.67;102125.63;6083455;23;20831;-91
2023/01/24 20:42:04;;;;;;;3.00;1.97;;;;;;;7.04;84.70;102128.34;6107529;23;20437;-91
2023/01/24 20:44:40;;;;;;;3.10;1.87;;;;;;;7.01;84.95;102131.31;6088269;23;20917;-91
2023/01/24 20:47:11;;;;;;;3.00;1.90;;;;;;;7.01;84.64;102136.75;6108428;23;20416;-91
2023/01/24 20:49:41;;;;;;;2.27;1.60;;;;;;;7.01;84.88;102126.75;6115421;23;20492;-89
2023/01/24 20:52:10;;;;;;;8.00;1.70;;;;;;;6.93;84.84;102115.69;6121990;23;20408;-89
2023/01/24 20:54:39;;;;;;;2.17;1.60;;;;;;;6.97;84.73;102132.59;6093534;23;20401;-91
2023/01/24 20:57:07;;;;;;;2.53;1.63;;;;;;;6.97;84.63;102138.00;6083678;23;20856;-91
2023/01/24 20:59:43;;;;;;;2.83;1.63;;;;;;;6.91;84.39;102129.44;6086399;23;20405;-90
2023/01/24 21:02:14;;;;;;;2.23;1.70;;;;;;;6.91;84.71;102131.28;6107811;23;20420;-91
2023/01/24 21:04:46;;;;;;;3.70;1.87;;;;;;;6.82;85.04;102119.38;6108262;23;20396;-90
2023/01/24 21:07:14;;;;;;;2.23;1.40;;;;;;;6.88;85.21;102135.13;6106917;23;20491;-89
2023/01/24 21:09:42;;;;;;;2.67;1.53;;;;;;;6.86;85.15;102133.53;6083029;23;20419;-90
2023/01/24 21:12:13;;;;;;;2.67;1.67;;;;;;;6.87;85.45;102132.56;6082322;23;20496;-90
2023/01/24 21:14:45;;;;;;;4.50;1.90;;;;;;;6.83;85.37;102133.81;6106546;23;20416;-90
2023/01/24 21:17:16;;;;;;;1.93;1.47;;;;;;;6.82;85.25;102127.50;6082951;23;20432;-90
2023/01/24 21:19:47;;;;;;;4.90;1.67;;;;;;;6.90;84.64;102130.44;6106821;23;20417;-90
2023/01/24 21:22:16;;;;;;;1.97;1.43;;;;;;;6.89;85.01;102127.84;6107207;23;20463;-91
2023/01/24 21:24:52;;;;;;;3.77;1.20;;;;;;;6.93;85.28;102130.13;6106264;23;20406;-91
2023/01/24 21:27:20;;;;;;;3.93;1.57;;;;;;;6.87;85.06;102125.25;6106824;23;20936;-91
2023/01/24 21:30:05;;;;;;;4.20;1.70;;;;;;;6.87;85.12;102125.25;6082777;23;20393;-90
2023/01/24 21:32:42;;;;;;;2.30;1.37;;;;;;;6.91;85.46;102128.56;6126914;23;20417;-90
2023/01/24 21:35:16;;;;;;;4.20;2.10;;;;;;;6.92;85.05;102133.00;6131501;23;20403;-90
2023/01/24 21:37:46;;;;;;;3.10;1.83;;;;;;;6.91;84.26;102129.44;6108146;23;20381;-90
2023/01/24 21:40:17;;;;;;;3.47;2.27;;;;;;;6.98;83.82;102129.72;6106504;23;20424;-92
2023/01/24 21:42:49;;;;;;;3.50;1.90;;;;;;;7.07;84.21;102130.78;6106325;23;20552;-92
2023/01/24 21:45:16;;;;;;;3.67;2.07;;;;;;;7.06;83.95;102112.75;6132123;23;20440;-92
2023/01/24 21:47:47;;;;;;;3.13;1.63;;;;;;;7.13;83.21;102116.63;6106703;23;20477;-92
2023/01/24 21:50:16;;;;;;;2.37;1.57;;;;;;;7.18;82.51;102127.94;6107090;23;20513;-93
2023/01/24 21:52:44;;;;;;;4.77;2.23;;;;;;;7.22;82.57;102135.69;6106135;23;20919;-91
2023/01/24 21:55:12;;;;;;;6.23;3.27;;;;;;;7.20;82.06;102128.66;6081877;23;20405;-92
2023/01/24 22:00:28;;;;;;;2.70;1.93;;;;;;;7.24;81.59;102135.56;6114146;23;20419;-92
2023/01/24 22:03:23;;;;;;;4.70;2.93;;;;;;;7.25;81.43;102140.88;6082808;23;20447;-92
2023/01/24 22:05:47;;;;;;;6.40;3.27;;;;;;;7.21;81.27;102130.41;6115027;23;20417;-92
2023/01/24 22:08:15;;;;;;;5.13;2.60;;;;;;;7.23;80.73;102128.41;6083952;23;20410;-92
2023/01/24 22:10:43;;;;;;;3.70;2.07;;;;;;;7.21;80.85;102128.53;6084649;23;20962;-92
2023/01/24 22:13:10;;;;;;;1.70;1.20;;;;;;;7.29;80.27;102141.44;6084995;23;20419;-93
2023/01/24 22:15:48;;;;;;;3.53;3.10;;;;;;;7.30;80.38;102129.59;6107901;23;20503;-93
2023/01/24 22:18:40;;;;;;;2.60;2.30;;;;;;;7.38;79.76;102140.59;6107539;23;20733;-93
2023/01/24 22:21:19;;;;;;;3.67;2.40;;;;;;;7.35;80.07;102129.13;5992839;23;20800;-94
2023/01/24 22:23:58;;;;;;;2.90;1.80;;;;;;;7.38;79.79;102137.88;5993402;23;20534;-94
2023/01/24 22:26:28;;;;;;;2.77;1.87;;;;;;;7.37;79.97;102141.59;5993737;23;20404;-92
2023/01/24 22:28:56;;;;;;;3.30;2.17;;;;;;;7.35;79.93;102140.88;6015745;23;20424;-91
2023/01/24 22:31:26;;;;;;;4.03;2.57;;;;;;;7.29;80.77;102141.44;5970731;23;20423;-93
2023/01/24 22:34:04;;;;;;;6.67;4.00;;;;;;;7.20;81.24;102134.09;5992471;23;20429;-92
2023/01/24 22:36:33;;;;;;;5.87;4.37;;;;;;;7.06;82.08;102123.63;5970459;23;20471;-92
2023/01/24 22:39:02;;;;;;;7.70;5.07;;;;;;;7.04;82.92;102136.50;6016056;23;20416;-92
2023/01/24 22:41:34;;;;;;;3.63;2.60;;;;;;;7.00;83.52;102133.16;5944381;23;21001;-93
2023/01/24 22:44:03;;;;;;;3.23;2.33;;;;;;;6.96;83.13;102133.56;5943278;23;20449;-92
2023/01/24 22:46:31;;;;;;;3.93;2.53;;;;;;;6.91;82.89;102136.72;5964949;23;20410;-92
2023/01/24 22:49:02;;;;;;;4.10;2.00;;;;;;;6.92;83.06;102142.03;5941780;23;21015;-94
2023/01/24 22:51:32;;;;;;;3.10;2.00;;;;;;;6.92;82.77;102150.19;5965956;23;20477;-92
2023/01/24 22:54:02;;;;;;;6.13;3.33;;;;;;;6.90;83.01;102152.16;5942131;23;20397;-92
2023/01/24 22:56:33;;;;;;;8.60;3.73;;;;;;;6.88;83.57;102137.00;5964554;23;20420;-94
2023/01/24 22:59:03;;;;;;;7.10;3.30;;;;;;;6.90;83.69;102145.88;6083555;23;20412;-92
2023/01/24 23:01:33;;;;;;;7.67;2.87;;;;;;;6.84;84.40;102147.25;6102707;23;20406;-92
2023/01/24 23:04:07;;;;;;;5.83;2.10;;;;;;;6.81;85.69;102152.09;6102290;23;20450;-91
2023/01/24 23:06:35;;;;;;;3.13;2.07;;;;;;;6.69;85.51;102136.88;6079006;23;20420;-94
2023/01/24 23:09:05;;;;;;;3.00;1.73;;;;;;;6.66;85.13;102146.16;6055420;23;20414;-92
2023/01/24 23:11:34;;;;;;;2.80;1.80;;;;;;;6.56;84.52;102134.38;6054839;23;20413;-94
2023/01/24 23:17:24;;;;;;;4.07;1.93;;;;;;;6.53;84.62;102142.81;6087265;23;20745;-93
2023/01/24 23:22:51;;;;;;;2.70;1.70;;;;;;;6.52;85.15;102141.09;6092592;23;20440;-94
2023/01/24 23:25:19;;;;;;;3.60;1.73;;;;;;;6.51;84.53;102150.22;6079258;23;20406;-94
2023/01/24 23:27:47;;;;;;;2.70;1.90;;;;;;;6.48;84.25;102140.47;6055385;23;20464;-92
2023/01/24 23:30:23;;;;;;;2.07;1.60;;;;;;;6.57;84.36;102144.22;6055129;23;20412;-93
2023/01/24 23:33:07;;;;;;;2.90;2.27;;;;;;;6.58;83.97;102144.09;6127658;23;20415;-94
2023/01/24 23:35:41;;;;;;;2.87;1.70;;;;;;;6.59;83.38;102136.81;6078852;23;20437;-94
2023/01/24 23:38:10;;;;;;;5.00;3.37;;;;;;;6.62;83.64;102141.13;6055479;23;20412;-92
2023/01/24 23:40:41;;;;;;;14.07;7.30;;;;;;;6.65;83.44;102130.84;6096667;23;20472;-94
2023/01/24 23:43:31;;;;;;;6.63;3.70;;;;;;;6.62;83.65;102120.25;6084043;23;20520;-93
2023/01/24 23:45:59;;;;;;;4.33;3.00;;;;;;;6.59;83.22;102117.81;6109011;23;20401;-94
2023/01/24 23:48:28;;;;;;;9.57;4.87;;;;;;;6.65;83.06;102140.88;6107838;23;20735;-94
2023/01/24 23:50:57;;;;;;;24.80;12.50;;;;;;;6.64;82.70;102133.72;6084150;23;20396;-92
2023/01/24 23:53:25;;;;;;;18.40;9.20;;;;;;;6.59;82.66;102120.53;6107689;23;20419;-94
2023/01/24 23:55:54;;;;;;;13.83;7.40;;;;;;;6.62;82.77;102127.53;6083552;23;20397;-91
2023/01/24 23:58:23;;;;;;;8.53;4.83;;;;;;;6.64;83.22;102129.13;6107823;23;20400;-92
